Time;durP1;ratioP1;P1;durP2;ratioP2;P2;SDS_P1;SDS_P2;PMS_P1;PMS_P2;Temp;Humidity;BMP_temperature;BMP_pressure;BME280_temperature;BME280_humidity;BME280_pressure;Samples;Min_cycle;Max_cycle;Signal;HPM_P1;HPM_P2
2024/01/20 00:01:32;;;;;;;6.60;6.30;;;15.80;64.20;;;;;;5064985;28;43951;-71
2024/01/20 00:04:00;;;;;;;6.50;6.20;;;15.80;64.20;;;;;;5072283;28;43358;-71
2024/01/20 00:06:29;;;;;;;7.03;6.63;;;15.70;64.30;;;;;;5060581;28;43403;-71
2024/01/20 00:08:57;;;;;;;6.97;6.57;;;15.80;64.50;;;;;;5058044;28;43588;-71
2024/01/20 00:11:25;;;;;;;6.20;5.90;;;15.80;64.00;;;;;;5069163;28;44126;-71
2024/01/20 00:13:53;;;;;;;5.50;5.30;;;15.80;63.80;;;;;;5055897;28;43329;-71
2024/01/20 00:16:23;;;;;;;6.60;6.30;;;15.80;64.00;;;;;;5054459;28;43503;-71
2024/01/20 00:18:51;;;;;;;6.27;5.97;;;15.80;64.00;;;;;;5058013;28;43427;-71
2024/01/20 00:21:19;;;;;;;6.30;6.00;;;15.80;64.00;;;;;;5055297;28;43616;-71
2024/01/20 00:23:47;;;;;;;6.57;6.27;;;15.80;64.10;;;;;;5059779;28;43458;-70
2024/01/20 00:26:16;;;;;;;6.00;5.80;;;15.80;64.00;;;;;;5050862;28;43503;-71
2024/01/20 00:28:44;;;;;;;6.37;6.07;;;15.80;64.00;;;;;;5052247;28;43557;-70
2024/01/20 00:31:12;;;;;;;6.47;6.17;;;15.80;64.00;;;;;;5053229;28;45436;-71
2024/01/20 00:33:42;;;;;;;6.33;6.03;;;15.70;63.90;;;;;;5059765;28;43450;-70
2024/01/20 00:36:10;;;;;;;6.70;6.40;;;15.80;64.10;;;;;;5053584;28;43458;-70
2024/01/20 00:38:39;;;;;;;6.30;6.00;;;15.70;64.10;;;;;;5058317;28;43385;-71
2024/01/20 00:41:07;;;;;;;5.90;5.67;;;15.70;64.10;;;;;;5054582;28;43568;-71
2024/01/20 00:43:35;;;;;;;6.23;5.93;;;15.70;64.40;;;;;;5061872;28;43470;-71
2024/01/20 00:46:03;;;;;;;5.77;5.57;;;15.80;64.20;;;;;;5061876;28;43397;-70
2024/01/20 00:48:31;;;;;;;6.20;5.90;;;15.80;63.80;;;;;;5063603;28;43426;-70
2024/01/20 00:51:00;;;;;;;6.00;5.80;;;15.80;63.70;;;;;;5059904;28;43937;-71
2024/01/20 00:53:28;;;;;;;6.20;5.90;;;15.80;63.80;;;;;;5060094;28;43436;-71
2024/01/20 00:55:56;;;;;;;5.63;5.43;;;15.80;63.90;;;;;;5062149;28;43455;-71
2024/01/20 00:58:24;;;;;;;6.00;5.70;;;15.80;64.00;;;;;;5059944;28;43392;-70
2024/01/20 01:00:52;;;;;;;5.73;5.53;;;15.80;64.00;;;;;;5060373;28;43620;-70
2024/01/20 01:03:21;;;;;;;6.20;5.90;;;15.70;63.90;;;;;;5062551;28;44809;-70
2024/01/20 01:05:49;;;;;;;5.70;5.50;;;15.70;64.70;;;;;;5060581;28;43429;-70
2024/01/20 01:08:18;;;;;;;5.60;5.40;;;15.80;64.10;;;;;;5056841;28;43464;-71
2024/01/20 01:10:46;;;;;;;6.50;6.20;;;15.80;64.00;;;;;;5060971;28;43572;-71
2024/01/20 01:13:14;;;;;;;5.90;5.70;;;15.70;64.00;;;;;;5082092;22;43497;-71
2024/01/20 01:15:43;;;;;;;5.17;4.97;;;15.70;64.10;;;;;;5066771;28;43427;-71
2024/01/20 01:18:11;;;;;;;5.87;5.67;;;15.70;64.20;;;;;;5065068;28;43348;-71
2024/01/20 01:20:39;;;;;;;5.87;5.67;;;15.70;64.10;;;;;;5059030;28;43612;-71
2024/01/20 01:23:07;;;;;;;5.60;5.40;;;15.70;64.10;;;;;;5060165;28;43373;-70
2024/01/20 01:25:36;;;;;;;5.43;5.23;;;15.70;64.10;;;;;;5062347;28;43432;-71
2024/01/20 01:28:04;;;;;;;5.77;5.57;;;15.70;64.10;;;;;;5058803;28;43533;-70
2024/01/20 01:30:32;;;;;;;5.60;5.40;;;15.70;64.10;;;;;;5064451;28;45496;-70
2024/01/20 01:33:00;;;;;;;5.90;5.70;;;15.70;64.20;;;;;;5061943;28;44404;-70
2024/01/20 01:35:29;;;;;;;5.80;5.60;;;15.70;64.30;;;;;;5059357;28;43379;-70
2024/01/20 01:37:58;;;;;;;5.60;5.30;;;15.70;64.40;;;;;;5059398;28;43427;-71
2024/01/20 01:40:26;;;;;;;6.03;5.83;;;15.80;64.20;;;;;;5065693;28;43568;-71
2024/01/20 01:42:57;;;;;;;6.13;5.90;;;15.90;64.00;;;;;;5060467;28;43418;-70
2024/01/20 01:45:25;;;;;;;5.40;5.20;;;15.90;63.50;;;;;;5059987;28;43378;-71
2024/01/20 01:47:55;;;;;;;5.40;5.20;;;15.90;63.50;;;;;;5059041;28;43415;-71
2024/01/20 01:50:23;;;;;;;5.70;5.50;;;15.90;63.60;;;;;;5038489;28;46074;-73
2024/01/20 01:52:51;;;;;;;5.97;5.77;;;15.90;63.80;;;;;;5037315;28;44115;-73
2024/01/20 01:55:19;;;;;;;5.30;5.10;;;15.80;63.60;;;;;;5035867;28;43570;-73
2024/01/20 01:57:48;;;;;;;5.90;5.70;;;15.80;63.70;;;;;;5036002;28;43843;-73
2024/01/20 02:00:17;;;;;;;6.10;5.80;;;15.80;63.80;;;;;;5036344;28;43977;-74
2024/01/20 02:02:46;;;;;;;5.40;5.20;;;15.70;63.80;;;;;;5033734;28;44062;-72
2024/01/20 02:05:14;;;;;;;5.70;5.50;;;15.80;64.00;;;;;;5036881;28;43405;-72
2024/01/20 02:07:42;;;;;;;5.50;5.30;;;15.70;63.90;;;;;;5039110;28;43480;-73
2024/01/20 02:10:10;;;;;;;5.93;5.63;;;15.70;63.90;;;;;;5039791;28;43819;-72
2024/01/20 02:12:39;;;;;;;5.57;5.37;;;15.70;63.90;;;;;;5042187;28;43356;-72
2024/01/20 02:15:07;;;;;;;5.67;5.47;;;15.70;64.00;;;;;;5040454;28;43530;-72
2024/01/20 02:17:50;;;;;;;5.70;5.50;;;15.70;63.90;;;;;;5032349;28;43490;-72
2024/01/20 02:20:19;;;;;;;5.27;5.07;;;15.70;64.00;;;;;;5036734;28;43838;-72
2024/01/20 02:22:48;;;;;;;5.83;5.63;;;15.70;64.00;;;;;;5035112;28;43495;-72
2024/01/20 02:25:17;;;;;;;6.03;5.83;;;15.70;64.10;;;;;;5054847;28;43426;-72
2024/01/20 02:27:45;;;;;;;5.70;5.50;;;15.70;64.10;;;;;;5036111;28;43359;-73
2024/01/20 02:30:13;;;;;;;5.77;5.57;;;15.70;64.00;;;;;;5043300;28;45756;-72
2024/01/20 02:32:41;;;;;;;5.73;5.53;;;15.60;63.90;;;;;;5034025;28;45017;-72
2024/01/20 02:35:08;;;;;;;5.47;5.27;;;15.70;64.00;;;;;;5033526;28;43405;-73
2024/01/20 02:37:36;;;;;;;5.87;5.67;;;15.70;64.00;;;;;;5037831;28;43431;-73
2024/01/20 02:40:08;;;;;;;5.70;5.50;;;15.70;64.00;;;;;;5034167;28;43701;-73
2024/01/20 02:42:36;;;;;;;5.90;5.70;;;15.70;64.10;;;;;;5033029;28;43317;-73
2024/01/20 02:45:05;;;;;;;6.10;5.90;;;15.70;64.10;;;;;;5029534;28;43831;-73
2024/01/20 02:47:33;;;;;;;5.93;5.70;;;15.60;64.20;;;;;;5035778;28;43994;-73
2024/01/20 02:50:01;;;;;;;6.23;6.03;;;15.70;64.20;;;;;;5036905;28;43840;-72
2024/01/20 02:52:29;;;;;;;6.00;5.80;;;15.80;64.00;;;;;;5032500;28;43467;-73
2024/01/20 02:54:58;;;;;;;6.17;5.87;;;15.80;63.50;;;;;;5037742;28;43473;-73
2024/01/20 02:57:27;;;;;;;5.33;5.13;;;15.80;63.50;;;;;;5028746;28;43401;-73
2024/01/20 02:59:55;;;;;;;5.73;5.50;;;15.80;63.60;;;;;;5046873;28;44298;-70
2024/01/20 03:02:23;;;;;;;6.53;6.23;;;15.80;63.70;;;;;;5057447;28;44387;-70
2024/01/20 03:04:51;;;;;;;6.17;5.97;;;15.70;63.90;;;;;;5063034;28;43550;-70
2024/01/20 03:07:19;;;;;;;6.20;5.90;;;15.70;63.80;;;;;;5056454;28;43530;-70
2024/01/20 03:09:47;;;;;;;5.97;5.77;;;15.70;63.90;;;;;;5056738;28;43620;-70
2024/01/20 03:12:15;;;;;;;5.23;5.07;;;15.70;63.90;;;;;;5067165;28;43283;-70
2024/01/20 03:14:45;;;;;;;5.70;5.50;;;15.70;63.90;;;;;;5047702;22;43494;-72
2024/01/20 03:17:13;;;;;;;6.47;6.17;;;15.70;64.00;;;;;;5038623;28;43912;-73
2024/01/20 03:19:41;;;;;;;5.80;5.60;;;15.60;64.10;;;;;;5032004;28;45346;-73
2024/01/20 03:22:09;;;;;;;5.50;5.30;;;15.60;64.20;;;;;;5038924;28;43471;-72
2024/01/20 03:24:37;;;;;;;5.70;5.50;;;15.60;64.30;;;;;;5036752;28;43460;-74
2024/01/20 03:27:05;;;;;;;6.27;5.97;;;15.60;64.30;;;;;;5035593;28;43408;-72
2024/01/20 03:29:33;;;;;;;5.63;5.43;;;15.60;64.20;;;;;;5033422;28;43903;-72
2024/01/20 03:32:03;;;;;;;6.03;5.80;;;15.60;64.30;;;;;;5040134;28;44126;-72
2024/01/20 03:34:31;;;;;;;5.60;5.40;;;15.60;64.30;;;;;;5037370;28;43430;-71
2024/01/20 03:36:59;;;;;;;5.97;5.77;;;15.50;64.20;;;;;;5034619;28;44108;-71
2024/01/20 03:39:27;;;;;;;5.93;5.73;;;15.60;64.40;;;;;;5037758;28;43611;-71
2024/01/20 03:41:55;;;;;;;5.87;5.67;;;15.50;64.40;;;;;;5038085;28;43408;-71
2024/01/20 03:44:23;;;;;;;6.13;5.83;;;15.60;64.50;;;;;;5034059;28;43422;-72
2024/01/20 03:46:51;;;;;;;5.60;5.40;;;15.70;64.30;;;;;;5037314;28;44049;-71
2024/01/20 03:49:21;;;;;;;6.23;5.83;;;15.70;63.90;;;;;;5029586;28;43837;-77
2024/01/20 03:51:52;;;;;;;5.80;5.60;;;15.70;63.50;;;;;;5030895;28;43869;-76
2024/01/20 03:54:20;;;;;;;6.17;5.87;;;15.80;63.70;;;;;;5030756;28;44069;-75
2024/01/20 03:56:48;;;;;;;6.33;6.03;;;15.70;63.70;;;;;;5029916;28;43671;-77
2024/01/20 03:59:16;;;;;;;5.97;5.67;;;15.70;63.80;;;;;;5035751;28;43912;-76
2024/01/20 04:01:44;;;;;;;6.50;6.17;;;15.70;63.70;;;;;;5031985;28;44451;-78
2024/01/20 04:04:12;;;;;;;5.77;5.57;;;15.70;63.80;;;;;;5031391;28;43959;-75
2024/01/20 04:06:42;;;;;;;6.63;6.33;;;15.70;63.80;;;;;;5032832;28;43336;-75
2024/01/20 04:09:11;;;;;;;6.23;5.93;;;15.70;63.80;;;;;;5027326;28;43577;-79
2024/01/20 04:11:39;;;;;;;5.90;5.70;;;15.70;63.80;;;;;;5030332;28;43458;-76
2024/01/20 04:14:08;;;;;;;5.73;5.53;;;15.70;63.90;;;;;;5032294;28;43458;-76
2024/01/20 04:16:36;;;;;;;5.80;5.60;;;15.70;63.90;;;;;;5030957;28;43438;-75
2024/01/20 04:19:04;;;;;;;6.27;5.97;;;15.70;63.90;;;;;;5031325;28;43834;-75
2024/01/20 04:21:32;;;;;;;5.93;5.73;;;15.70;63.80;;;;;;5023948;28;43479;-76
2024/01/20 04:24:01;;;;;;;6.03;5.80;;;15.70;63.90;;;;;;5030659;28;44216;-75
2024/01/20 04:26:30;;;;;;;6.00;5.80;;;15.70;63.80;;;;;;5026995;28;43348;-74
2024/01/20 04:28:58;;;;;;;5.80;5.60;;;15.70;63.80;;;;;;5030896;28;43614;-74
2024/01/20 04:31:26;;;;;;;5.47;5.27;;;15.70;63.80;;;;;;5028904;28;44427;-73
2024/01/20 04:33:54;;;;;;;6.30;6.00;;;15.70;63.80;;;;;;5028212;28;43393;-73
2024/01/20 04:36:22;;;;;;;5.87;5.67;;;15.70;63.90;;;;;;5036000;28;43458;-74
2024/01/20 04:38:50;;;;;;;5.90;5.70;;;15.70;63.90;;;;;;5031412;28;43928;-73
2024/01/20 04:41:20;;;;;;;6.30;6.00;;;15.80;63.70;;;;;;5028924;28;43390;-74
2024/01/20 04:43:48;;;;;;;6.37;6.07;;;15.90;63.20;;;;;;5035888;28;43382;-74
2024/01/20 04:46:16;;;;;;;5.37;5.17;;;15.80;63.10;;;;;;5036391;28;43501;-74
2024/01/20 04:48:44;;;;;;;5.80;5.60;;;15.80;63.10;;;;;;5031260;28;43610;-73
2024/01/20 04:51:12;;;;;;;5.73;5.53;;;15.80;63.20;;;;;;5035431;28;43361;-73
2024/01/20 04:53:40;;;;;;;6.00;5.80;;;15.80;63.40;;;;;;5027069;28;43427;-75
2024/01/20 04:56:08;;;;;;;5.93;5.73;;;15.70;63.30;;;;;;5030398;28;43431;-73
2024/01/20 04:58:38;;;;;;;5.83;5.63;;;15.80;63.40;;;;;;5027978;28;46178;-73
2024/01/20 05:01:06;;;;;;;5.83;5.63;;;15.80;63.50;;;;;;5029428;28;43484;-73
2024/01/20 05:03:34;;;;;;;6.10;5.80;;;15.80;63.50;;;;;;5030210;28;43851;-74
2024/01/20 05:06:02;;;;;;;5.83;5.63;;;15.70;63.50;;;;;;5033901;28;43452;-75
2024/01/20 05:08:31;;;;;;;6.23;5.93;;;15.70;63.50;;;;;;5033185;28;43597;-75
2024/01/20 05:10:59;;;;;;;5.67;5.47;;;15.70;63.60;;;;;;5025167;28;45064;-73
2024/01/20 05:13:27;;;;;;;5.40;5.20;;;15.70;63.50;;;;;;5026545;28;43457;-72
2024/01/20 05:15:56;;;;;;;6.30;6.00;;;15.70;63.60;;;;;;5026694;28;44049;-72
2024/01/20 05:18:24;;;;;;;5.90;5.70;;;15.70;63.50;;;;;;5032820;28;43946;-74
2024/01/20 05:20:53;;;;;;;5.73;5.53;;;15.70;63.60;;;;;;5028065;28;44472;-73
2024/01/20 05:23:21;;;;;;;6.23;5.93;;;15.70;63.60;;;;;;5026376;28;44042;-73
2024/01/20 05:25:49;;;;;;;5.90;5.60;;;15.70;63.60;;;;;;5030662;28;43498;-72
2024/01/20 05:28:17;;;;;;;5.90;5.70;;;15.70;63.70;;;;;;5031218;28;46097;-73
2024/01/20 05:30:45;;;;;;;6.13;5.83;;;15.70;63.90;;;;;;5036015;28;43464;-73
2024/01/20 05:33:15;;;;;;;5.83;5.53;;;15.70;63.80;;;;;;5032412;28;43423;-74
2024/01/20 05:35:43;;;;;;;6.03;5.83;;;15.80;63.30;;;;;;5030589;28;43562;-72
2024/01/20 05:38:11;;;;;;;5.40;5.20;;;15.90;63.00;;;;;;5030328;28;43934;-77
2024/01/20 05:40:40;;;;;;;6.23;5.93;;;15.90;63.00;;;;;;5030417;28;43414;-75
2024/01/20 05:43:08;;;;;;;6.20;5.90;;;15.80;63.00;;;;;;5038042;28;43436;-75
2024/01/20 05:45:36;;;;;;;6.43;6.13;;;15.80;63.10;;;;;;5035735;28;43436;-75
2024/01/20 05:48:04;;;;;;;5.73;5.53;;;15.80;63.40;;;;;;5032494;28;43684;-76
2024/01/20 05:50:34;;;;;;;5.20;5.00;;;15.80;63.20;;;;;;5035300;28;43395;-77
2024/01/20 05:53:02;;;;;;;5.20;5.00;;;15.80;64.10;;;;;;5034122;28;43950;-76
2024/01/20 05:55:30;;;;;;;5.77;5.57;;;15.70;63.40;;;;;;5037340;28;43464;-76
2024/01/20 05:57:58;;;;;;;5.40;5.20;;;15.70;63.50;;;;;;5034003;28;43588;-76
2024/01/20 06:00:26;;;;;;;5.80;5.60;;;15.70;63.60;;;;;;5030433;28;43495;-76
2024/01/20 06:02:54;;;;;;;5.87;5.67;;;15.70;63.70;;;;;;5035169;28;43419;-76
2024/01/20 06:05:22;;;;;;;6.00;5.80;;;15.70;63.80;;;;;;5033637;28;43442;-76
2024/01/20 06:07:52;;;;;;;5.30;5.10;;;15.60;63.60;;;;;;5034615;28;43937;-77
2024/01/20 06:10:20;;;;;;;5.40;5.20;;;15.60;63.70;;;;;;5032880;28;43456;-74
2024/01/20 06:12:48;;;;;;;5.70;5.50;;;15.60;63.80;;;;;;5029622;28;43532;-73
2024/01/20 06:15:16;;;;;;;5.70;5.50;;;15.60;63.70;;;;;;5037575;28;43454;-72
2024/01/20 06:17:44;;;;;;;5.80;5.60;;;15.60;63.70;;;;;;5038217;28;43631;-72
2024/01/20 06:20:14;;;;;;;6.07;5.83;;;15.60;63.80;;;;;;5029514;28;45457;-74
2024/01/20 06:22:42;;;;;;;5.97;5.77;;;15.60;63.80;;;;;;5031830;28;43464;-74
2024/01/20 06:25:13;;;;;;;6.13;5.83;;;15.60;63.80;;;;;;5033980;28;43635;-73
2024/01/20 06:27:41;;;;;;;6.10;5.90;;;15.70;64.00;;;;;;5030677;28;43867;-75
2024/01/20 06:30:10;;;;;;;5.20;5.00;;;15.70;63.40;;;;;;5033225;28;43496;-74
2024/01/20 06:32:39;;;;;;;5.53;5.33;;;15.80;63.20;;;;;;5032395;28;43443;-74
2024/01/20 06:35:08;;;;;;;5.77;5.57;;;15.80;63.20;;;;;;5030421;28;43405;-72
2024/01/20 06:37:36;;;;;;;6.00;5.70;;;15.80;63.20;;;;;;5034856;28;43881;-73
2024/01/20 06:40:06;;;;;;;5.33;5.13;;;15.80;63.20;;;;;;5023664;28;43529;-73
2024/01/20 06:42:35;;;;;;;5.67;5.47;;;15.70;63.20;;;;;;5036488;28;43412;-72
2024/01/20 06:45:04;;;;;;;6.00;5.73;;;15.80;63.20;;;;;;5024805;28;43515;-74
2024/01/20 06:47:32;;;;;;;6.63;6.23;;;15.80;63.20;;;;;;5034352;28;43917;-73
2024/01/20 06:50:00;;;;;;;5.77;5.57;;;15.80;63.30;;;;;;5035064;28;43431;-72
2024/01/20 06:52:29;;;;;;;5.60;5.40;;;15.80;63.30;;;;;;5036009;28;43476;-70
2024/01/20 06:54:57;;;;;;;5.80;5.60;;;15.80;63.40;;;;;;5044769;28;43536;-70
2024/01/20 06:57:25;;;;;;;6.20;5.90;;;15.70;63.30;;;;;;5041474;28;43905;-73
2024/01/20 06:59:55;;;;;;;6.20;5.90;;;15.80;63.30;;;;;;5034145;28;44415;-73
2024/01/20 07:02:23;;;;;;;5.60;5.40;;;15.70;63.20;;;;;;5035802;28;43451;-71
2024/01/20 07:04:51;;;;;;;6.60;6.30;;;15.80;63.30;;;;;;5039743;28;43268;-71
2024/01/20 07:07:19;;;;;;;6.07;5.77;;;15.70;63.20;;;;;;5035375;28;43953;-71
2024/01/20 07:09:47;;;;;;;6.13;5.87;;;15.70;63.20;;;;;;5031976;28;43444;-71
2024/01/20 07:12:15;;;;;;;5.97;5.70;;;15.70;63.30;;;;;;5039879;28;43448;-71
2024/01/20 07:14:43;;;;;;;6.47;6.07;;;15.70;63.30;;;;;;5035142;28;43980;-70
2024/01/20 07:17:13;;;;;;;6.33;6.03;;;15.70;63.50;;;;;;5031118;28;43902;-70
2024/01/20 07:19:41;;;;;;;6.00;5.70;;;15.70;63.70;;;;;;5033805;28;43419;-74
2024/01/20 07:22:09;;;;;;;6.17;5.87;;;15.70;63.60;;;;;;5033459;28;43344;-73
2024/01/20 07:24:37;;;;;;;5.80;5.60;;;15.80;63.30;;;;;;5034416;28;44123;-73
2024/01/20 07:27:05;;;;;;;6.10;5.80;;;15.80;62.90;;;;;;5033602;28;45653;-73
2024/01/20 07:29:33;;;;;;;5.60;5.40;;;15.80;62.90;;;;;;5032929;28;45063;-73
2024/01/20 07:32:01;;;;;;;5.77;5.57;;;15.80;63.00;;;;;;5031248;28;44053;-73
2024/01/20 07:34:31;;;;;;;6.53;6.23;;;15.80;63.20;;;;;;5027642;28;43510;-74
2024/01/20 07:36:59;;;;;;;6.20;5.90;;;15.80;63.30;;;;;;5027532;28;44094;-73
2024/01/20 07:39:27;;;;;;;6.20;5.90;;;15.80;63.20;;;;;;5031956;28;44785;-73
2024/01/20 07:41:55;;;;;;;5.70;5.50;;;15.70;63.20;;;;;;5029950;28;43410;-76
2024/01/20 07:44:23;;;;;;;6.20;6.00;;;15.70;63.20;;;;;;5032307;28;43432;-72
2024/01/20 07:46:51;;;;;;;6.07;5.77;;;15.70;64.00;;;;;;5026523;28;45678;-76
2024/01/20 07:49:19;;;;;;;6.40;6.10;;;15.70;63.40;;;;;;5028469;28;43478;-74
2024/01/20 07:51:49;;;;;;;5.60;5.40;;;15.70;64.10;;;;;;5036634;28;43356;-74
2024/01/20 07:54:17;;;;;;;5.83;5.63;;;15.70;63.50;;;;;;5030383;28;43483;-73
2024/01/20 07:56:45;;;;;;;6.20;5.90;;;15.70;63.30;;;;;;5032847;28;45605;-73
2024/01/20 07:59:14;;;;;;;6.27;5.97;;;15.70;63.40;;;;;;5032619;28;45202;-74
2024/01/20 08:01:42;;;;;;;6.30;6.00;;;15.70;63.40;;;;;;5029386;28;43801;-75
2024/01/20 08:04:10;;;;;;;6.50;6.20;;;15.70;63.40;;;;;;5031715;28;43432;-73
2024/01/20 08:06:38;;;;;;;6.87;6.47;;;15.70;63.40;;;;;;5027703;28;45498;-73
2024/01/20 08:09:07;;;;;;;5.60;5.40;;;15.70;63.40;;;;;;5034448;28;43446;-72
2024/01/20 08:11:36;;;;;;;6.60;6.30;;;15.70;63.50;;;;;;5029847;28;43494;-73
2024/01/20 08:14:04;;;;;;;6.47;6.17;;;15.70;63.60;;;;;;5033672;28;43456;-74
2024/01/20 08:16:32;;;;;;;6.23;5.93;;;15.80;64.30;;;;;;5025443;28;45244;-74
2024/01/20 08:19:00;;;;;;;6.67;6.33;;;15.80;63.00;;;;;;5024250;28;43471;-72
2024/01/20 08:21:28;;;;;;;5.67;5.47;;;15.80;62.90;;;;;;5025837;28;43487;-75
2024/01/20 08:23:56;;;;;;;6.43;6.13;;;15.80;63.00;;;;;;5031884;28;43393;-74
2024/01/20 08:26:26;;;;;;;5.27;5.07;;;15.80;63.00;;;;;;5032764;28;46209;-74
2024/01/20 08:28:54;;;;;;;6.13;5.83;;;15.80;63.20;;;;;;5032813;28;43413;-74
2024/01/20 08:31:22;;;;;;;5.53;5.33;;;15.70;63.10;;;;;;5034385;28;43473;-73
2024/01/20 08:33:50;;;;;;;5.63;5.43;;;15.70;63.20;;;;;;5028548;28;43405;-77
2024/01/20 08:36:21;;;;;;;5.70;5.50;;;15.70;63.20;;;;;;5029578;28;43773;-74
2024/01/20 08:38:49;;;;;;;5.43;5.23;;;15.70;63.20;;;;;;5032085;28;43467;-74
2024/01/20 08:41:18;;;;;;;6.20;5.90;;;15.70;63.30;;;;;;5031077;28;43865;-74
2024/01/20 08:43:48;;;;;;;5.63;5.43;;;15.70;63.30;;;;;;5030233;28;43602;-73
2024/01/20 08:46:16;;;;;;;5.83;5.63;;;15.70;63.30;;;;;;5031743;28;44802;-74
2024/01/20 08:48:44;;;;;;;6.47;6.17;;;15.60;63.40;;;;;;5028936;28;44942;-73
2024/01/20 08:51:12;;;;;;;5.63;5.43;;;15.70;63.60;;;;;;5030756;28;43801;-74
2024/01/20 08:53:40;;;;;;;5.77;5.57;;;15.70;63.20;;;;;;5032657;28;44059;-75
2024/01/20 08:56:09;;;;;;;5.27;5.07;;;15.70;62.80;;;;;;5031303;28;45315;-73
2024/01/20 08:58:37;;;;;;;6.20;5.90;;;15.80;63.00;;;;;;5028680;28;43515;-72
2024/01/20 09:01:07;;;;;;;5.40;5.20;;;15.70;63.00;;;;;;5033947;28;43794;-75
2024/01/20 09:03:35;;;;;;;5.37;5.17;;;15.70;63.00;;;;;;5030115;28;43502;-74
2024/01/20 09:06:04;;;;;;;5.53;5.33;;;15.70;63.20;;;;;;5031547;28;43865;-73
2024/01/20 09:08:33;;;;;;;5.80;5.60;;;15.70;63.10;;;;;;5033353;28;43394;-71
2024/01/20 09:11:01;;;;;;;5.57;5.37;;;15.70;63.20;;;;;;5037212;28;43412;-71
2024/01/20 09:13:29;;;;;;;5.60;5.40;;;15.70;63.20;;;;;;5034344;28;43456;-71
2024/01/20 09:15:57;;;;;;;5.40;5.20;;;15.70;63.20;;;;;;5042730;28;43624;-72
2024/01/20 09:18:26;;;;;;;5.90;5.60;;;15.70;63.30;;;;;;5038383;28;43407;-73
2024/01/20 09:20:55;;;;;;;5.97;5.70;;;15.70;63.40;;;;;;5035489;28;43511;-71
2024/01/20 09:23:23;;;;;;;5.60;5.40;;;15.60;63.30;;;;;;5035368;28;43578;-71
2024/01/20 09:25:51;;;;;;;5.20;5.00;;;15.60;63.50;;;;;;5038225;28;43614;-70
2024/01/20 09:28:19;;;;;;;5.80;5.60;;;15.60;63.60;;;;;;5040549;28;45040;-70
2024/01/20 09:30:47;;;;;;;5.47;5.27;;;15.70;63.20;;;;;;5041216;28;43392;-72
2024/01/20 09:33:16;;;;;;;5.80;5.50;;;15.70;63.10;;;;;;5035331;28;43632;-71
2024/01/20 09:35:46;;;;;;;5.83;5.57;;;15.70;63.10;;;;;;5038684;28;43863;-70
2024/01/20 09:38:14;;;;;;;5.13;4.97;;;15.70;63.10;;;;;;5035253;28;43491;-72
2024/01/20 09:40:42;;;;;;;5.63;5.33;;;15.70;63.20;;;;;;5033537;28;43529;-78
2024/01/20 09:43:10;;;;;;;5.37;5.17;;;15.70;63.40;;;;;;5031245;28;43538;-76
2024/01/20 09:45:40;;;;;;;5.90;5.70;;;15.60;63.20;;;;;;5030914;28;43640;-77
2024/01/20 09:48:08;;;;;;;5.63;5.43;;;15.70;63.30;;;;;;5037821;28;43412;-77
2024/01/20 09:50:36;;;;;;;5.57;5.37;;;15.70;63.30;;;;;;5032677;28;43408;-77
2024/01/20 09:53:12;;;;;;;5.10;4.90;;;15.70;63.40;;;;;;5030991;28;43520;-77
2024/01/20 09:55:40;;;;;;;5.60;5.40;;;15.60;63.30;;;;;;5037606;28;46062;-77
2024/01/20 09:58:08;;;;;;;5.30;5.10;;;15.60;63.30;;;;;;5029064;28;43411;-76
2024/01/20 10:00:36;;;;;;;6.03;5.73;;;15.60;63.40;;;;;;5025504;28;43432;-77
2024/01/20 10:03:05;;;;;;;6.03;5.73;;;15.60;63.60;;;;;;5034679;28;43354;-78
2024/01/20 10:05:37;;;;;;;5.43;5.23;;;15.70;63.60;;;;;;5029492;28;44290;-76
2024/01/20 10:08:07;;;;;;;5.47;5.27;;;15.70;62.90;;;;;;5033346;28;43353;-77
2024/01/20 10:10:35;;;;;;;5.50;5.30;;;15.80;62.80;;;;;;5032528;28;43379;-77
2024/01/20 10:13:03;;;;;;;5.43;5.20;;;15.80;62.90;;;;;;5033165;28;43555;-77
2024/01/20 10:15:32;;;;;;;6.30;6.00;;;15.70;62.90;;;;;;5030883;28;43599;-76
2024/01/20 10:18:07;;;;;;;6.03;5.80;;;15.70;63.00;;;;;;5033343;28;43546;-78
2024/01/20 10:20:38;;;;;;;6.17;5.87;;;15.70;63.10;;;;;;5030866;28;43531;-73
2024/01/20 10:23:08;;;;;;;5.13;4.93;;;15.70;63.00;;;;;;5034758;28;43565;-74
2024/01/20 10:25:36;;;;;;;6.50;6.10;;;15.70;62.90;;;;;;5035094;28;45667;-74
2024/01/20 10:28:04;;;;;;;7.33;6.70;;;15.70;62.90;;;;;;5035431;28;43471;-74
2024/01/20 10:30:32;;;;;;;7.07;6.40;;;15.70;63.00;;;;;;5031803;28;43410;-74
2024/01/20 10:33:02;;;;;;;10.43;7.57;;;15.60;63.00;;;;;;5028917;28;43447;-75
2024/01/20 10:35:37;;;;;;;8.73;7.40;;;15.60;63.20;;;;;;5036839;28;43748;-74
2024/01/20 10:38:10;;;;;;;13.00;8.27;;;15.60;63.00;;;;;;5009869;28;45120;-74
2024/01/20 10:40:38;;;;;;;14.27;8.73;;;15.70;63.20;;;;;;5029073;28;43468;-73
2024/01/20 10:43:12;;;;;;;13.20;8.50;;;15.70;63.30;;;;;;5033249;28;43957;-73
2024/01/20 10:45:42;;;;;;;12.97;8.67;;;15.60;63.20;;;;;;5031890;28;46245;-74
2024/01/20 10:48:13;;;;;;;15.73;8.53;;;15.60;63.30;;;;;;5031754;28;44267;-74
2024/01/20 10:50:42;;;;;;;17.57;9.87;;;15.60;63.40;;;;;;5025943;28;43363;-75
2024/01/20 10:53:12;;;;;;;11.27;8.47;;;15.70;63.50;;;;;;5037411;28;43531;-74
2024/01/20 10:55:40;;;;;;;16.20;9.23;;;15.60;63.50;;;;;;5023880;28;43620;-73
2024/01/20 10:58:09;;;;;;;14.23;9.03;;;15.70;63.80;;;;;;5027195;28;45181;-76
2024/01/20 11:00:38;;;;;;;16.37;9.20;;;15.80;63.50;;;;;;5030124;28;43474;-74
2024/01/20 11:03:06;;;;;;;16.57;9.83;;;15.80;62.70;;;;;;5027843;28;43591;-74
2024/01/20 11:05:34;;;;;;;19.33;10.53;;;15.80;62.90;;;;;;5024744;28;44080;-74
2024/01/20 11:08:05;;;;;;;18.93;10.50;;;15.80;62.90;;;;;;5028017;28;43552;-75
2024/01/20 11:10:40;;;;;;;20.17;9.77;;;15.80;63.10;;;;;;5029798;28;43970;-75
2024/01/20 11:13:10;;;;;;;14.50;9.43;;;15.70;62.90;;;;;;5033692;28;43447;-74
2024/01/20 11:15:39;;;;;;;13.77;9.13;;;15.80;63.00;;;;;;5031606;28;43961;-72
2024/01/20 11:18:17;;;;;;;17.70;10.73;;;15.70;63.10;;;;;;5029184;28;43443;-75
2024/01/20 11:20:54;;;;;;;19.90;10.67;;;15.80;63.10;;;;;;5038847;28;43443;-75
2024/01/20 11:23:22;;;;;;;18.03;10.10;;;15.70;63.20;;;;;;5033467;28;43464;-75
2024/01/20 11:25:52;;;;;;;16.20;9.60;;;15.70;63.20;;;;;;5027522;28;43922;-74
2024/01/20 11:28:24;;;;;;;19.00;10.80;;;15.70;63.20;;;;;;5029739;28;43406;-73
2024/01/20 11:30:52;;;;;;;14.37;9.53;;;15.70;63.20;;;;;;5032081;28;44019;-75
2024/01/20 11:33:20;;;;;;;15.03;10.13;;;15.70;63.20;;;;;;5031482;28;43369;-73
2024/01/20 11:35:51;;;;;;;16.27;10.13;;;15.70;63.30;;;;;;5038181;28;43599;-74
2024/01/20 11:38:20;;;;;;;16.10;10.10;;;15.70;63.30;;;;;;5030606;28;44420;-73
2024/01/20 11:40:59;;;;;;;16.70;9.67;;;15.70;63.40;;;;;;5031692;28;43451;-73
2024/01/20 11:43:27;;;;;;;17.17;10.00;;;15.70;63.40;;;;;;5028776;28;43502;-73
2024/01/20 11:45:56;;;;;;;16.27;9.53;;;15.70;63.40;;;;;;5031918;28;44005;-74
2024/01/20 11:48:24;;;;;;;16.23;10.30;;;15.70;63.40;;;;;;5031636;28;44207;-74
2024/01/20 11:50:52;;;;;;;17.17;10.57;;;15.70;63.70;;;;;;5033087;28;43424;-72
2024/01/20 11:53:21;;;;;;;16.97;10.37;;;15.70;63.50;;;;;;5026687;28;43873;-75
2024/01/20 11:55:54;;;;;;;17.73;9.73;;;15.80;63.00;;;;;;5027301;28;43730;-74
2024/01/20 11:58:23;;;;;;;13.30;9.30;;;15.80;62.90;;;;;;5028262;28;43556;-76
2024/01/20 12:00:51;;;;;;;13.23;9.77;;;15.80;63.10;;;;;;5028649;28;43457;-76
2024/01/20 12:03:20;;;;;;;15.97;9.40;;;15.80;63.20;;;;;;5034595;28;43437;-76
2024/01/20 12:05:48;;;;;;;16.50;10.43;;;15.80;63.30;;;;;;5027011;28;43896;-76
2024/01/20 12:08:16;;;;;;;13.70;9.00;;;15.80;63.00;;;;;;5031968;28;43440;-77
2024/01/20 12:10:45;;;;;;;14.77;9.80;;;15.80;63.10;;;;;;5031413;28;43375;-76
2024/01/20 12:13:13;;;;;;;15.97;9.50;;;15.80;63.20;;;;;;5031103;28;43499;-76
2024/01/20 12:15:47;;;;;;;16.37;10.17;;;15.80;63.20;;;;;;5031590;28;43594;-76
2024/01/20 12:18:16;;;;;;;14.20;9.20;;;15.70;63.20;;;;;;5035544;28;43445;-74
2024/01/20 12:20:45;;;;;;;11.87;9.23;;;15.80;63.30;;;;;;5033619;28;43344;-75
2024/01/20 12:23:19;;;;;;;12.93;9.57;;;15.70;63.40;;;;;;5028668;28;43422;-75
2024/01/20 12:25:51;;;;;;;14.33;9.07;;;15.70;63.40;;;;;;5031422;28;43887;-74
2024/01/20 12:28:19;;;;;;;14.17;9.23;;;15.70;63.50;;;;;;5039577;28;44681;-77
2024/01/20 12:30:49;;;;;;;13.30;10.03;;;15.80;63.10;;;;;;5027251;28;43446;-76
2024/01/20 12:33:17;;;;;;;11.43;8.87;;;15.80;63.00;;;;;;5027192;28;44529;-78
2024/01/20 12:35:45;;;;;;;11.13;9.00;;;15.80;63.10;;;;;;5028214;28;43608;-74
2024/01/20 12:38:14;;;;;;;12.00;8.80;;;15.80;63.10;;;;;;5024734;28;43458;-72
2024/01/20 12:40:42;;;;;;;10.67;9.13;;;15.80;63.10;;;;;;5031118;28;43381;-71
2024/01/20 12:43:10;;;;;;;11.83;8.80;;;15.70;63.20;;;;;;5031239;28;43410;-72
2024/01/20 12:45:39;;;;;;;10.83;8.67;;;15.80;63.20;;;;;;5035766;28;43854;-72
2024/01/20 12:48:08;;;;;;;12.50;9.03;;;15.80;63.20;;;;;;5035193;28;43446;-72
2024/01/20 12:50:37;;;;;;;10.80;8.87;;;15.70;63.20;;;;;;5034808;28;43349;-70
2024/01/20 12:53:05;;;;;;;11.43;9.30;;;15.70;63.20;;;;;;5025176;28;43476;-73